Aviation Digital Data Service (ADDS)

Output produced by METARs form (0343 UTC 19 August 2019)
found at http://www.aviationweather.gov/metar/data/
 
METAR text: LFKJ 190330Z AUTO 04006KT CAVOK 20/14 Q1015 NOSIG
Conditions at: LFKJ (AJACCIO/CAMPO OR, FR) observed 0330 UTC 19 August 2019
Temperature: 20.0°C (68°F)
Dewpoint: 14.0°C (57°F) [RH = 68%]
Pressure (altimeter): 29.97 inches Hg (1015.0 mb)
Winds: from the NE (40 degrees) at 7 MPH (6 knots; 3.1 m/s)
Visibility: 6 or more miles (10+ km)
Ceiling: ceiling and visibility are OK
Clouds: unknown
Weather: no significant weather observed at this time

METAR text: LFKJ 190300Z AUTO 05007KT CAVOK 20/14 Q1015 NOSIG
Conditions at: LFKJ (AJACCIO/CAMPO OR, FR) observed 0300 UTC 19 August 2019
Temperature: 20.0°C (68°F)
Dewpoint: 14.0°C (57°F) [RH = 68%]
Pressure (altimeter): 29.97 inches Hg (1015.0 mb)
Winds: from the NE (50 degrees) at 8 MPH (7 knots; 3.6 m/s)
Visibility: 6 or more miles (10+ km)
Ceiling: ceiling and visibility are OK
Clouds: unknown
Weather: no significant weather observed at this time

METAR text: LFKJ 190230Z AUTO 03007KT CAVOK 19/14 Q1015 NOSIG
Conditions at: LFKJ (AJACCIO/CAMPO OR, FR) observed 0230 UTC 19 August 2019
Temperature: 19.0°C (66°F)
Dewpoint: 14.0°C (57°F) [RH = 73%]
Pressure (altimeter): 29.97 inches Hg (1015.0 mb)
Winds: from the NNE (30 degrees) at 8 MPH (7 knots; 3.6 m/s)
Visibility: 6 or more miles (10+ km)
Ceiling: ceiling and visibility are OK
Clouds: unknown
Weather: no significant weather observed at this time

METAR text: LFKJ 190200Z AUTO 04005KT CAVOK 19/14 Q1015 NOSIG
Conditions at: LFKJ (AJACCIO/CAMPO OR, FR) observed 0200 UTC 19 August 2019
Temperature: 19.0°C (66°F)
Dewpoint: 14.0°C (57°F) [RH = 73%]
Pressure (altimeter): 29.97 inches Hg (1015.0 mb)
Winds: from the NE (40 degrees) at 6 MPH (5 knots; 2.6 m/s)
Visibility: 6 or more miles (10+ km)
Ceiling: ceiling and visibility are OK
Clouds: unknown
Weather: no significant weather observed at this time

METAR text: LFKJ 190130Z AUTO 05005KT CAVOK 20/14 Q1015 NOSIG
Conditions at: LFKJ (AJACCIO/CAMPO OR, FR) observed 0130 UTC 19 August 2019
Temperature: 20.0°C (68°F)
Dewpoint: 14.0°C (57°F) [RH = 68%]
Pressure (altimeter): 29.97 inches Hg (1015.0 mb)
Winds: from the NE (50 degrees) at 6 MPH (5 knots; 2.6 m/s)
Visibility: 6 or more miles (10+ km)
Ceiling: ceiling and visibility are OK
Clouds: unknown
Weather: no significant weather observed at this time

METAR text: LFKJ 190100Z AUTO 04005KT CAVOK 20/15 Q1015 NOSIG
Conditions at: LFKJ (AJACCIO/CAMPO OR, FR) observed 0100 UTC 19 August 2019
Temperature: 20.0°C (68°F)
Dewpoint: 15.0°C (59°F) [RH = 73%]
Pressure (altimeter): 29.97 inches Hg (1015.0 mb)
Winds: from the NE (40 degrees) at 6 MPH (5 knots; 2.6 m/s)
Visibility: 6 or more miles (10+ km)
Ceiling: ceiling and visibility are OK
Clouds: unknown
Weather: no significant weather observed at this time

METAR text: LFKJ 190030Z AUTO 04006KT CAVOK 20/15 Q1015 NOSIG
Conditions at: LFKJ (AJACCIO/CAMPO OR, FR) observed 0030 UTC 19 August 2019
Temperature: 20.0°C (68°F)
Dewpoint: 15.0°C (59°F) [RH = 73%]
Pressure (altimeter): 29.97 inches Hg (1015.0 mb)
Winds: from the NE (40 degrees) at 7 MPH (6 knots; 3.1 m/s)
Visibility: 6 or more miles (10+ km)
Ceiling: ceiling and visibility are OK
Clouds: unknown
Weather: no significant weather observed at this time

METAR text: LFKJ 190000Z AUTO 04007KT CAVOK 20/15 Q1015 NOSIG
Conditions at: LFKJ (AJACCIO/CAMPO OR, FR) observed 0000 UTC 19 August 2019
Temperature: 20.0°C (68°F)
Dewpoint: 15.0°C (59°F) [RH = 73%]
Pressure (altimeter): 29.97 inches Hg (1015.0 mb)
Winds: from the NE (40 degrees) at 8 MPH (7 knots; 3.6 m/s)
Visibility: 6 or more miles (10+ km)
Ceiling: ceiling and visibility are OK
Clouds: unknown
Weather: no significant weather observed at this time

METAR text: LFKJ 182330Z AUTO 04007KT CAVOK 20/15 Q1015 NOSIG
Conditions at: LFKJ (AJACCIO/CAMPO OR, FR) observed 2330 UTC 18 August 2019
Temperature: 20.0°C (68°F)
Dewpoint: 15.0°C (59°F) [RH = 73%]
Pressure (altimeter): 29.97 inches Hg (1015.0 mb)
Winds: from the NE (40 degrees) at 8 MPH (7 knots; 3.6 m/s)
Visibility: 6 or more miles (10+ km)
Ceiling: ceiling and visibility are OK
Clouds: unknown
Weather: no significant weather observed at this time

METAR text: LFKJ 182300Z AUTO 04006KT CAVOK 21/15 Q1015 NOSIG
Conditions at: LFKJ (AJACCIO/CAMPO OR, FR) observed 2300 UTC 18 August 2019
Temperature: 21.0°C (70°F)
Dewpoint: 15.0°C (59°F) [RH = 69%]
Pressure (altimeter): 29.97 inches Hg (1015.0 mb)
Winds: from the NE (40 degrees) at 7 MPH (6 knots; 3.1 m/s)
Visibility: 6 or more miles (10+ km)
Ceiling: ceiling and visibility are OK
Clouds: unknown
Weather: no significant weather observed at this time

METAR text: LFKJ 182230Z AUTO 05005KT CAVOK 21/15 Q1015 NOSIG
Conditions at: LFKJ (AJACCIO/CAMPO OR, FR) observed 2230 UTC 18 August 2019
Temperature: 21.0°C (70°F)
Dewpoint: 15.0°C (59°F) [RH = 69%]
Pressure (altimeter): 29.97 inches Hg (1015.0 mb)
Winds: from the NE (50 degrees) at 6 MPH (5 knots; 2.6 m/s)
Visibility: 6 or more miles (10+ km)
Ceiling: ceiling and visibility are OK
Clouds: unknown
Weather: no significant weather observed at this time

METAR text: LFKJ 182200Z AUTO 05006KT CAVOK 21/16 Q1015 NOSIG
Conditions at: LFKJ (AJACCIO/CAMPO OR, FR) observed 2200 UTC 18 August 2019
Temperature: 21.0°C (70°F)
Dewpoint: 16.0°C (61°F) [RH = 73%]
Pressure (altimeter): 29.97 inches Hg (1015.0 mb)
Winds: from the NE (50 degrees) at 7 MPH (6 knots; 3.1 m/s)
Visibility: 6 or more miles (10+ km)
Ceiling: ceiling and visibility are OK
Clouds: unknown
Weather: no significant weather observed at this time

METAR text: LFKJ 182130Z AUTO 05005KT CAVOK 22/16 Q1015 NOSIG
Conditions at: LFKJ (AJACCIO/CAMPO OR, FR) observed 2130 UTC 18 August 2019
Temperature: 22.0°C (72°F)
Dewpoint: 16.0°C (61°F) [RH = 69%]
Pressure (altimeter): 29.97 inches Hg (1015.0 mb)
Winds: from the NE (50 degrees) at 6 MPH (5 knots; 2.6 m/s)
Visibility: 6 or more miles (10+ km)
Ceiling: ceiling and visibility are OK
Clouds: unknown
Weather: no significant weather observed at this time

METAR text: LFKJ 182100Z AUTO 03004KT CAVOK 23/16 Q1015 NOSIG
Conditions at: LFKJ (AJACCIO/CAMPO OR, FR) observed 2100 UTC 18 August 2019
Temperature: 23.0°C (73°F)
Dewpoint: 16.0°C (61°F) [RH = 65%]
Pressure (altimeter): 29.97 inches Hg (1015.0 mb)
Winds: from the NNE (30 degrees) at 5 MPH (4 knots; 2.1 m/s)
Visibility: 6 or more miles (10+ km)
Ceiling: ceiling and visibility are OK
Clouds: unknown
Weather: no significant weather observed at this time

METAR text: LFKJ 182030Z AUTO 07004KT CAVOK 24/16 Q1015 NOSIG
Conditions at: LFKJ (AJACCIO/CAMPO OR, FR) observed 2030 UTC 18 August 2019
Temperature: 24.0°C (75°F)
Dewpoint: 16.0°C (61°F) [RH = 61%]
Pressure (altimeter): 29.97 inches Hg (1015.0 mb)
Winds: from the ENE (70 degrees) at 5 MPH (4 knots; 2.1 m/s)
Visibility: 6 or more miles (10+ km)
Ceiling: ceiling and visibility are OK
Clouds: unknown
Weather: no significant weather observed at this time

METAR text: LFKJ 182000Z AUTO VRB02KT CAVOK 24/17 Q1015 NOSIG
Conditions at: LFKJ (AJACCIO/CAMPO OR, FR) observed 2000 UTC 18 August 2019
Temperature: 24.0°C (75°F)
Dewpoint: 17.0°C (63°F) [RH = 65%]
Pressure (altimeter): 29.97 inches Hg (1015.0 mb)
Winds: variable direction winds at 2 MPH (2 knots; 1.0 m/s)
Visibility: 6 or more miles (10+ km)
Ceiling: ceiling and visibility are OK
Clouds: unknown
Weather: no significant weather observed at this time

METAR text: LFKJ 181930Z AUTO 05004KT 010V070 CAVOK 25/17 Q1015 NOSIG
Conditions at: LFKJ (AJACCIO/CAMPO OR, FR) observed 1930 UTC 18 August 2019
Temperature: 25.0°C (77°F)
Dewpoint: 17.0°C (63°F) [RH = 61%]
Pressure (altimeter): 29.97 inches Hg (1015.0 mb)
Winds: from the NE (50 degrees) at 5 MPH (4 knots; 2.1 m/s)
Visibility: 6 or more miles (10+ km)
Ceiling: ceiling and visibility are OK
Clouds: unknown
Weather: no significant weather observed at this time

METAR text: LFKJ 181900Z AUTO VRB02KT CAVOK 26/17 Q1014 NOSIG
Conditions at: LFKJ (AJACCIO/CAMPO OR, FR) observed 1900 UTC 18 August 2019
Temperature: 26.0°C (79°F)
Dewpoint: 17.0°C (63°F) [RH = 58%]
Pressure (altimeter): 29.94 inches Hg (1014.0 mb)
Winds: variable direction winds at 2 MPH (2 knots; 1.0 m/s)
Visibility: 6 or more miles (10+ km)
Ceiling: ceiling and visibility are OK
Clouds: unknown
Weather: no significant weather observed at this time

METAR text: LFKJ 181830Z AUTO 15003KT CAVOK 26/17 Q1014 NOSIG
Conditions at: LFKJ (AJACCIO/CAMPO OR, FR) observed 1830 UTC 18 August 2019
Temperature: 26.0°C (79°F)
Dewpoint: 17.0°C (63°F) [RH = 58%]
Pressure (altimeter): 29.94 inches Hg (1014.0 mb)
Winds: from the SSE (150 degrees) at 3 MPH (3 knots; 1.5 m/s)
Visibility: 6 or more miles (10+ km)
Ceiling: ceiling and visibility are OK
Clouds: unknown
Weather: no significant weather observed at this time

METAR text: LFKJ 181800Z AUTO 18004KT CAVOK 27/19 Q1014 NOSIG
Conditions at: LFKJ (AJACCIO/CAMPO OR, FR) observed 1800 UTC 18 August 2019
Temperature: 27.0°C (81°F)
Dewpoint: 19.0°C (66°F) [RH = 62%]
Pressure (altimeter): 29.94 inches Hg (1014.0 mb)
Winds: from the S (180 degrees) at 5 MPH (4 knots; 2.1 m/s)
Visibility: 6 or more miles (10+ km)
Ceiling: ceiling and visibility are OK
Clouds: unknown
Weather: no significant weather observed at this time

METAR text: LFKJ 181730Z AUTO 20005KT CAVOK 28/20 Q1014 NOSIG
Conditions at: LFKJ (AJACCIO/CAMPO OR, FR) observed 1730 UTC 18 August 2019
Temperature: 28.0°C (82°F)
Dewpoint: 20.0°C (68°F) [RH = 62%]
Pressure (altimeter): 29.94 inches Hg (1014.0 mb)
Winds: from the SSW (200 degrees) at 6 MPH (5 knots; 2.6 m/s)
Visibility: 6 or more miles (10+ km)
Ceiling: ceiling and visibility are OK
Clouds: unknown
Weather: no significant weather observed at this time

METAR text: LFKJ 181700Z AUTO 19005KT 150V210 CAVOK 29/19 Q1014 NOSIG
Conditions at: LFKJ (AJACCIO/CAMPO OR, FR) observed 1700 UTC 18 August 2019
Temperature: 29.0°C (84°F)
Dewpoint: 19.0°C (66°F) [RH = 55%]
Pressure (altimeter): 29.94 inches Hg (1014.0 mb)
Winds: from the S (190 degrees) at 6 MPH (5 knots; 2.6 m/s)
Visibility: 6 or more miles (10+ km)
Ceiling: ceiling and visibility are OK
Clouds: unknown
Weather: no significant weather observed at this time

METAR text: LFKJ 181630Z AUTO 22006KT 180V240 CAVOK 29/19 Q1014 NOSIG
Conditions at: LFKJ (AJACCIO/CAMPO OR, FR) observed 1630 UTC 18 August 2019
Temperature: 29.0°C (84°F)
Dewpoint: 19.0°C (66°F) [RH = 55%]
Pressure (altimeter): 29.94 inches Hg (1014.0 mb)
Winds: from the SW (220 degrees) at 7 MPH (6 knots; 3.1 m/s)
Visibility: 6 or more miles (10+ km)
Ceiling: ceiling and visibility are OK
Clouds: unknown
Weather: no significant weather observed at this time

METAR text: LFKJ 181600Z AUTO 22007KT CAVOK 29/20 Q1014 NOSIG
Conditions at: LFKJ (AJACCIO/CAMPO OR, FR) observed 1600 UTC 18 August 2019
Temperature: 29.0°C (84°F)
Dewpoint: 20.0°C (68°F) [RH = 58%]
Pressure (altimeter): 29.94 inches Hg (1014.0 mb)
Winds: from the SW (220 degrees) at 8 MPH (7 knots; 3.6 m/s)
Visibility: 6 or more miles (10+ km)
Ceiling: ceiling and visibility are OK
Clouds: unknown
Weather: no significant weather observed at this time

METAR text: LFKJ 181530Z AUTO 22008KT CAVOK 29/20 Q1015 NOSIG
Conditions at: LFKJ (AJACCIO/CAMPO OR, FR) observed 1530 UTC 18 August 2019
Temperature: 29.0°C (84°F)
Dewpoint: 20.0°C (68°F) [RH = 58%]
Pressure (altimeter): 29.97 inches Hg (1015.0 mb)
Winds: from the SW (220 degrees) at 9 MPH (8 knots; 4.1 m/s)
Visibility: 6 or more miles (10+ km)
Ceiling: ceiling and visibility are OK
Clouds: unknown
Weather: no significant weather observed at this time

METAR text: LFKJ 181500Z AUTO 23009KT CAVOK 30/20 Q1015 NOSIG
Conditions at: LFKJ (AJACCIO/CAMPO OR, FR) observed 1500 UTC 18 August 2019
Temperature: 30.0°C (86°F)
Dewpoint: 20.0°C (68°F) [RH = 55%]
Pressure (altimeter): 29.97 inches Hg (1015.0 mb)
Winds: from the SW (230 degrees) at 10 MPH (9 knots; 4.6 m/s)
Visibility: 6 or more miles (10+ km)
Ceiling: ceiling and visibility are OK
Clouds: unknown
Weather: no significant weather observed at this time

METAR text: LFKJ 181430Z AUTO 23010KT CAVOK 30/19 Q1015 NOSIG
Conditions at: LFKJ (AJACCIO/CAMPO OR, FR) observed 1430 UTC 18 August 2019
Temperature: 30.0°C (86°F)
Dewpoint: 19.0°C (66°F) [RH = 52%]
Pressure (altimeter): 29.97 inches Hg (1015.0 mb)
Winds: from the SW (230 degrees) at 12 MPH (10 knots; 5.1 m/s)
Visibility: 6 or more miles (10+ km)
Ceiling: ceiling and visibility are OK
Clouds: unknown
Weather: no significant weather observed at this time

METAR text: LFKJ 181400Z AUTO 22008KT CAVOK 30/19 Q1015 NOSIG
Conditions at: LFKJ (AJACCIO/CAMPO OR, FR) observed 1400 UTC 18 August 2019
Temperature: 30.0°C (86°F)
Dewpoint: 19.0°C (66°F) [RH = 52%]
Pressure (altimeter): 29.97 inches Hg (1015.0 mb)
Winds: from the SW (220 degrees) at 9 MPH (8 knots; 4.1 m/s)
Visibility: 6 or more miles (10+ km)
Ceiling: ceiling and visibility are OK
Clouds: unknown
Weather: no significant weather observed at this time

METAR text: LFKJ 181330Z AUTO 23008KT CAVOK 30/19 Q1015 NOSIG
Conditions at: LFKJ (AJACCIO/CAMPO OR, FR) observed 1330 UTC 18 August 2019
Temperature: 30.0°C (86°F)
Dewpoint: 19.0°C (66°F) [RH = 52%]
Pressure (altimeter): 29.97 inches Hg (1015.0 mb)
Winds: from the SW (230 degrees) at 9 MPH (8 knots; 4.1 m/s)
Visibility: 6 or more miles (10+ km)
Ceiling: ceiling and visibility are OK
Clouds: unknown
Weather: no significant weather observed at this time

METAR text: LFKJ 181300Z AUTO 23007KT 190V250 CAVOK 30/19 Q1015 NOSIG
Conditions at: LFKJ (AJACCIO/CAMPO OR, FR) observed 1300 UTC 18 August 2019
Temperature: 30.0°C (86°F)
Dewpoint: 19.0°C (66°F) [RH = 52%]
Pressure (altimeter): 29.97 inches Hg (1015.0 mb)
Winds: from the SW (230 degrees) at 8 MPH (7 knots; 3.6 m/s)
Visibility: 6 or more miles (10+ km)
Ceiling: ceiling and visibility are OK
Clouds: unknown
Weather: no significant weather observed at this time

METAR text: LFKJ 181230Z AUTO 23010KT CAVOK 30/19 Q1015 NOSIG
Conditions at: LFKJ (AJACCIO/CAMPO OR, FR) observed 1230 UTC 18 August 2019
Temperature: 30.0°C (86°F)
Dewpoint: 19.0°C (66°F) [RH = 52%]
Pressure (altimeter): 29.97 inches Hg (1015.0 mb)
Winds: from the SW (230 degrees) at 12 MPH (10 knots; 5.1 m/s)
Visibility: 6 or more miles (10+ km)
Ceiling: ceiling and visibility are OK
Clouds: unknown
Weather: no significant weather observed at this time

METAR text: LFKJ 181200Z AUTO 22011KT CAVOK 30/19 Q1015 NOSIG
Conditions at: LFKJ (AJACCIO/CAMPO OR, FR) observed 1200 UTC 18 August 2019
Temperature: 30.0°C (86°F)
Dewpoint: 19.0°C (66°F) [RH = 52%]
Pressure (altimeter): 29.97 inches Hg (1015.0 mb)
Winds: from the SW (220 degrees) at 13 MPH (11 knots; 5.7 m/s)
Visibility: 6 or more miles (10+ km)
Ceiling: ceiling and visibility are OK
Clouds: unknown
Weather: no significant weather observed at this time

METAR text: LFKJ 181130Z AUTO 22009KT CAVOK 30/19 Q1015 NOSIG
Conditions at: LFKJ (AJACCIO/CAMPO OR, FR) observed 1130 UTC 18 August 2019
Temperature: 30.0°C (86°F)
Dewpoint: 19.0°C (66°F) [RH = 52%]
Pressure (altimeter): 29.97 inches Hg (1015.0 mb)
Winds: from the SW (220 degrees) at 10 MPH (9 knots; 4.6 m/s)
Visibility: 6 or more miles (10+ km)
Ceiling: ceiling and visibility are OK
Clouds: unknown
Weather: no significant weather observed at this time

METAR text: LFKJ 181100Z AUTO 23010KT CAVOK 29/19 Q1015 NOSIG
Conditions at: LFKJ (AJACCIO/CAMPO OR, FR) observed 1100 UTC 18 August 2019
Temperature: 29.0°C (84°F)
Dewpoint: 19.0°C (66°F) [RH = 55%]
Pressure (altimeter): 29.97 inches Hg (1015.0 mb)
Winds: from the SW (230 degrees) at 12 MPH (10 knots; 5.1 m/s)
Visibility: 6 or more miles (10+ km)
Ceiling: ceiling and visibility are OK
Clouds: unknown
Weather: no significant weather observed at this time

METAR text: LFKJ 181030Z AUTO 23008KT CAVOK 29/19 Q1016 NOSIG
Conditions at: LFKJ (AJACCIO/CAMPO OR, FR) observed 1030 UTC 18 August 2019
Temperature: 29.0°C (84°F)
Dewpoint: 19.0°C (66°F) [RH = 55%]
Pressure (altimeter): 30.00 inches Hg (1016.0 mb)
Winds: from the SW (230 degrees) at 9 MPH (8 knots; 4.1 m/s)
Visibility: 6 or more miles (10+ km)
Ceiling: ceiling and visibility are OK
Clouds: unknown
Weather: no significant weather observed at this time

METAR text: LFKJ 181000Z AUTO 22009KT CAVOK 29/18 Q1016 NOSIG
Conditions at: LFKJ (AJACCIO/CAMPO OR, FR) observed 1000 UTC 18 August 2019
Temperature: 29.0°C (84°F)
Dewpoint: 18.0°C (64°F) [RH = 52%]
Pressure (altimeter): 30.00 inches Hg (1016.0 mb)
Winds: from the SW (220 degrees) at 10 MPH (9 knots; 4.6 m/s)
Visibility: 6 or more miles (10+ km)
Ceiling: ceiling and visibility are OK
Clouds: unknown
Weather: no significant weather observed at this time

METAR text: LFKJ 180930Z AUTO 23010KT CAVOK 29/19 Q1016 NOSIG
Conditions at: LFKJ (AJACCIO/CAMPO OR, FR) observed 0930 UTC 18 August 2019
Temperature: 29.0°C (84°F)
Dewpoint: 19.0°C (66°F) [RH = 55%]
Pressure (altimeter): 30.00 inches Hg (1016.0 mb)
Winds: from the SW (230 degrees) at 12 MPH (10 knots; 5.1 m/s)
Visibility: 6 or more miles (10+ km)
Ceiling: ceiling and visibility are OK
Clouds: unknown
Weather: no significant weather observed at this time

METAR text: LFKJ 180900Z AUTO 23010KT CAVOK 28/19 Q1016 NOSIG
Conditions at: LFKJ (AJACCIO/CAMPO OR, FR) observed 0900 UTC 18 August 2019
Temperature: 28.0°C (82°F)
Dewpoint: 19.0°C (66°F) [RH = 58%]
Pressure (altimeter): 30.00 inches Hg (1016.0 mb)
Winds: from the SW (230 degrees) at 12 MPH (10 knots; 5.1 m/s)
Visibility: 6 or more miles (10+ km)
Ceiling: ceiling and visibility are OK
Clouds: unknown
Weather: no significant weather observed at this time

METAR text: LFKJ 180830Z AUTO 23005KT CAVOK 28/17 Q1015 NOSIG
Conditions at: LFKJ (AJACCIO/CAMPO OR, FR) observed 0830 UTC 18 August 2019
Temperature: 28.0°C (82°F)
Dewpoint: 17.0°C (63°F) [RH = 51%]
Pressure (altimeter): 29.97 inches Hg (1015.0 mb)
Winds: from the SW (230 degrees) at 6 MPH (5 knots; 2.6 m/s)
Visibility: 6 or more miles (10+ km)
Ceiling: ceiling and visibility are OK
Clouds: unknown
Weather: no significant weather observed at this time

METAR text: LFKJ 180800Z AUTO VRB02KT CAVOK 28/15 Q1015 NOSIG
Conditions at: LFKJ (AJACCIO/CAMPO OR, FR) observed 0800 UTC 18 August 2019
Temperature: 28.0°C (82°F)
Dewpoint: 15.0°C (59°F) [RH = 45%]
Pressure (altimeter): 29.97 inches Hg (1015.0 mb)
Winds: variable direction winds at 2 MPH (2 knots; 1.0 m/s)
Visibility: 6 or more miles (10+ km)
Ceiling: ceiling and visibility are OK
Clouds: unknown
Weather: no significant weather observed at this time

METAR text: LFKJ 180730Z AUTO VRB01KT CAVOK 28/14 Q1015 NOSIG
Conditions at: LFKJ (AJACCIO/CAMPO OR, FR) observed 0730 UTC 18 August 2019
Temperature: 28.0°C (82°F)
Dewpoint: 14.0°C (57°F) [RH = 42%]
Pressure (altimeter): 29.97 inches Hg (1015.0 mb)
Winds: variable direction winds at 1 MPH (1 knots; 0.5 m/s)
Visibility: 6 or more miles (10+ km)
Ceiling: ceiling and visibility are OK
Clouds: unknown
Weather: no significant weather observed at this time

METAR text: LFKJ 180700Z AUTO 03004KT 010V080 CAVOK 25/16 Q1015 BECMG 22010KT
Conditions at: LFKJ (AJACCIO/CAMPO OR, FR) observed 0700 UTC 18 August 2019
Temperature: 25.0°C (77°F)
Dewpoint: 16.0°C (61°F) [RH = 57%]
Pressure (altimeter): 29.97 inches Hg (1015.0 mb)
Winds: from the NNE (30 degrees) at 5 MPH (4 knots; 2.1 m/s)
Visibility: 6 or more miles (10+ km)
Ceiling: ceiling and visibility are OK
Clouds: unknown
Weather: no significant weather observed at this time

METAR text: LFKJ 180630Z AUTO 04004KT 010V070 CAVOK 23/16 Q1015 BECMG 22010KT
Conditions at: LFKJ (AJACCIO/CAMPO OR, FR) observed 0630 UTC 18 August 2019
Temperature: 23.0°C (73°F)
Dewpoint: 16.0°C (61°F) [RH = 65%]
Pressure (altimeter): 29.97 inches Hg (1015.0 mb)
Winds: from the NE (40 degrees) at 5 MPH (4 knots; 2.1 m/s)
Visibility: 6 or more miles (10+ km)
Ceiling: ceiling and visibility are OK
Clouds: unknown
Weather: no significant weather observed at this time

METAR text: LFKJ 180600Z AUTO 04005KT CAVOK 21/15 Q1015 BECMG 22010KT
Conditions at: LFKJ (AJACCIO/CAMPO OR, FR) observed 0600 UTC 18 August 2019
Temperature: 21.0°C (70°F)
Dewpoint: 15.0°C (59°F) [RH = 69%]
Pressure (altimeter): 29.97 inches Hg (1015.0 mb)
Winds: from the NE (40 degrees) at 6 MPH (5 knots; 2.6 m/s)
Visibility: 6 or more miles (10+ km)
Ceiling: ceiling and visibility are OK
Clouds: unknown
Weather: no significant weather observed at this time

METAR text: LFKJ 180530Z AUTO 04006KT CAVOK 19/15 Q1015 BECMG 22010KT
Conditions at: LFKJ (AJACCIO/CAMPO OR, FR) observed 0530 UTC 18 August 2019
Temperature: 19.0°C (66°F)
Dewpoint: 15.0°C (59°F) [RH = 78%]
Pressure (altimeter): 29.97 inches Hg (1015.0 mb)
Winds: from the NE (40 degrees) at 7 MPH (6 knots; 3.1 m/s)
Visibility: 6 or more miles (10+ km)
Ceiling: ceiling and visibility are OK
Clouds: unknown
Weather: no significant weather observed at this time

METAR text: LFKJ 180500Z AUTO 04007KT CAVOK 18/15 Q1015 NOSIG
Conditions at: LFKJ (AJACCIO/CAMPO OR, FR) observed 0500 UTC 18 August 2019
Temperature: 18.0°C (64°F)
Dewpoint: 15.0°C (59°F) [RH = 83%]
Pressure (altimeter): 29.97 inches Hg (1015.0 mb)
Winds: from the NE (40 degrees) at 8 MPH (7 knots; 3.6 m/s)
Visibility: 6 or more miles (10+ km)
Ceiling: ceiling and visibility are OK
Clouds: unknown
Weather: no significant weather observed at this time

METAR text: LFKJ 180430Z AUTO 05006KT CAVOK 18/15 Q1015 NOSIG
Conditions at: LFKJ (AJACCIO/CAMPO OR, FR) observed 0430 UTC 18 August 2019
Temperature: 18.0°C (64°F)
Dewpoint: 15.0°C (59°F) [RH = 83%]
Pressure (altimeter): 29.97 inches Hg (1015.0 mb)
Winds: from the NE (50 degrees) at 7 MPH (6 knots; 3.1 m/s)
Visibility: 6 or more miles (10+ km)
Ceiling: ceiling and visibility are OK
Clouds: unknown
Weather: no significant weather observed at this time

METAR text: LFKJ 180400Z AUTO 04006KT CAVOK 18/15 Q1015 NOSIG
Conditions at: LFKJ (AJACCIO/CAMPO OR, FR) observed 0400 UTC 18 August 2019
Temperature: 18.0°C (64°F)
Dewpoint: 15.0°C (59°F) [RH = 83%]
Pressure (altimeter): 29.97 inches Hg (1015.0 mb)
Winds: from the NE (40 degrees) at 7 MPH (6 knots; 3.1 m/s)
Visibility: 6 or more miles (10+ km)
Ceiling: ceiling and visibility are OK
Clouds: unknown
Weather: no significant weather observed at this time

METAR text: LFKJ 180330Z AUTO 05006KT CAVOK 18/16 Q1015 NOSIG
Conditions at: LFKJ (AJACCIO/CAMPO OR, FR) observed 0330 UTC 18 August 2019
Temperature: 18.0°C (64°F)
Dewpoint: 16.0°C (61°F) [RH = 88%]
Pressure (altimeter): 29.97 inches Hg (1015.0 mb)
Winds: from the NE (50 degrees) at 7 MPH (6 knots; 3.1 m/s)
Visibility: 6 or more miles (10+ km)
Ceiling: ceiling and visibility are OK
Clouds: unknown
Weather: no significant weather observed at this time

METAR text: LFKJ 180300Z AUTO 04005KT CAVOK 19/16 Q1015 NOSIG
Conditions at: LFKJ (AJACCIO/CAMPO OR, FR) observed 0300 UTC 18 August 2019
Temperature: 19.0°C (66°F)
Dewpoint: 16.0°C (61°F) [RH = 83%]
Pressure (altimeter): 29.97 inches Hg (1015.0 mb)
Winds: from the NE (40 degrees) at 6 MPH (5 knots; 2.6 m/s)
Visibility: 6 or more miles (10+ km)
Ceiling: ceiling and visibility are OK
Clouds: unknown
Weather: no significant weather observed at this time

METAR text: LFKJ 180230Z AUTO 04006KT CAVOK 18/15 Q1015 NOSIG
Conditions at: LFKJ (AJACCIO/CAMPO OR, FR) observed 0230 UTC 18 August 2019
Temperature: 18.0°C (64°F)
Dewpoint: 15.0°C (59°F) [RH = 83%]
Pressure (altimeter): 29.97 inches Hg (1015.0 mb)
Winds: from the NE (40 degrees) at 7 MPH (6 knots; 3.1 m/s)
Visibility: 6 or more miles (10+ km)
Ceiling: ceiling and visibility are OK
Clouds: unknown
Weather: no significant weather observed at this time

METAR text: LFKJ 180200Z AUTO 05005KT CAVOK 19/16 Q1016 NOSIG
Conditions at: LFKJ (AJACCIO/CAMPO OR, FR) observed 0200 UTC 18 August 2019
Temperature: 19.0°C (66°F)
Dewpoint: 16.0°C (61°F) [RH = 83%]
Pressure (altimeter): 30.00 inches Hg (1016.0 mb)
Winds: from the NE (50 degrees) at 6 MPH (5 knots; 2.6 m/s)
Visibility: 6 or more miles (10+ km)
Ceiling: ceiling and visibility are OK
Clouds: unknown
Weather: no significant weather observed at this time

METAR text: LFKJ 180130Z AUTO 04005KT CAVOK 19/16 Q1016 NOSIG
Conditions at: LFKJ (AJACCIO/CAMPO OR, FR) observed 0130 UTC 18 August 2019
Temperature: 19.0°C (66°F)
Dewpoint: 16.0°C (61°F) [RH = 83%]
Pressure (altimeter): 30.00 inches Hg (1016.0 mb)
Winds: from the NE (40 degrees) at 6 MPH (5 knots; 2.6 m/s)
Visibility: 6 or more miles (10+ km)
Ceiling: ceiling and visibility are OK
Clouds: unknown
Weather: no significant weather observed at this time

METAR text: LFKJ 180100Z AUTO 05005KT CAVOK 19/16 Q1016 NOSIG
Conditions at: LFKJ (AJACCIO/CAMPO OR, FR) observed 0100 UTC 18 August 2019
Temperature: 19.0°C (66°F)
Dewpoint: 16.0°C (61°F) [RH = 83%]
Pressure (altimeter): 30.00 inches Hg (1016.0 mb)
Winds: from the NE (50 degrees) at 6 MPH (5 knots; 2.6 m/s)
Visibility: 6 or more miles (10+ km)
Ceiling: ceiling and visibility are OK
Clouds: unknown
Weather: no significant weather observed at this time

METAR text: LFKJ 180030Z AUTO 05005KT CAVOK 20/16 Q1016 NOSIG
Conditions at: LFKJ (AJACCIO/CAMPO OR, FR) observed 0030 UTC 18 August 2019
Temperature: 20.0°C (68°F)
Dewpoint: 16.0°C (61°F) [RH = 78%]
Pressure (altimeter): 30.00 inches Hg (1016.0 mb)
Winds: from the NE (50 degrees) at 6 MPH (5 knots; 2.6 m/s)
Visibility: 6 or more miles (10+ km)
Ceiling: ceiling and visibility are OK
Clouds: unknown
Weather: no significant weather observed at this time

METAR text: LFKJ 180000Z AUTO 05007KT CAVOK 20/16 Q1016 NOSIG
Conditions at: LFKJ (AJACCIO/CAMPO OR, FR) observed 0000 UTC 18 August 2019
Temperature: 20.0°C (68°F)
Dewpoint: 16.0°C (61°F) [RH = 78%]
Pressure (altimeter): 30.00 inches Hg (1016.0 mb)
Winds: from the NE (50 degrees) at 8 MPH (7 knots; 3.6 m/s)
Visibility: 6 or more miles (10+ km)
Ceiling: ceiling and visibility are OK
Clouds: unknown
Weather: no significant weather observed at this time

METAR text: LFKJ 172330Z AUTO 05006KT CAVOK 19/16 Q1016 NOSIG
Conditions at: LFKJ (AJACCIO/CAMPO OR, FR) observed 2330 UTC 17 August 2019
Temperature: 19.0°C (66°F)
Dewpoint: 16.0°C (61°F) [RH = 83%]
Pressure (altimeter): 30.00 inches Hg (1016.0 mb)
Winds: from the NE (50 degrees) at 7 MPH (6 knots; 3.1 m/s)
Visibility: 6 or more miles (10+ km)
Ceiling: ceiling and visibility are OK
Clouds: unknown
Weather: no significant weather observed at this time

METAR text: LFKJ 172300Z AUTO 04004KT CAVOK 20/16 Q1016 NOSIG
Conditions at: LFKJ (AJACCIO/CAMPO OR, FR) observed 2300 UTC 17 August 2019
Temperature: 20.0°C (68°F)
Dewpoint: 16.0°C (61°F) [RH = 78%]
Pressure (altimeter): 30.00 inches Hg (1016.0 mb)
Winds: from the NE (40 degrees) at 5 MPH (4 knots; 2.1 m/s)
Visibility: 6 or more miles (10+ km)
Ceiling: ceiling and visibility are OK
Clouds: unknown
Weather: no significant weather observed at this time

METAR text: LFKJ 172230Z AUTO 07003KT CAVOK 20/16 Q1016 NOSIG
Conditions at: LFKJ (AJACCIO/CAMPO OR, FR) observed 2230 UTC 17 August 2019
Temperature: 20.0°C (68°F)
Dewpoint: 16.0°C (61°F) [RH = 78%]
Pressure (altimeter): 30.00 inches Hg (1016.0 mb)
Winds: from the ENE (70 degrees) at 3 MPH (3 knots; 1.5 m/s)
Visibility: 6 or more miles (10+ km)
Ceiling: ceiling and visibility are OK
Clouds: unknown
Weather: no significant weather observed at this time

METAR text: LFKJ 172200Z AUTO 05003KT CAVOK 21/16 Q1016 NOSIG
Conditions at: LFKJ (AJACCIO/CAMPO OR, FR) observed 2200 UTC 17 August 2019
Temperature: 21.0°C (70°F)
Dewpoint: 16.0°C (61°F) [RH = 73%]
Pressure (altimeter): 30.00 inches Hg (1016.0 mb)
Winds: from the NE (50 degrees) at 3 MPH (3 knots; 1.5 m/s)
Visibility: 6 or more miles (10+ km)
Ceiling: ceiling and visibility are OK
Clouds: unknown
Weather: no significant weather observed at this time

METAR text: LFKJ 172130Z AUTO 12001KT CAVOK 22/16 Q1016 NOSIG
Conditions at: LFKJ (AJACCIO/CAMPO OR, FR) observed 2130 UTC 17 August 2019
Temperature: 22.0°C (72°F)
Dewpoint: 16.0°C (61°F) [RH = 69%]
Pressure (altimeter): 30.00 inches Hg (1016.0 mb)
Winds: from the ESE (120 degrees) at 1 MPH (1 knots; 0.5 m/s)
Visibility: 6 or more miles (10+ km)
Ceiling: ceiling and visibility are OK
Clouds: unknown
Weather: no significant weather observed at this time

METAR text: LFKJ 172100Z AUTO 06004KT CAVOK 22/16 Q1016 NOSIG
Conditions at: LFKJ (AJACCIO/CAMPO OR, FR) observed 2100 UTC 17 August 2019
Temperature: 22.0°C (72°F)
Dewpoint: 16.0°C (61°F) [RH = 69%]
Pressure (altimeter): 30.00 inches Hg (1016.0 mb)
Winds: from the ENE (60 degrees) at 5 MPH (4 knots; 2.1 m/s)
Visibility: 6 or more miles (10+ km)
Ceiling: ceiling and visibility are OK
Clouds: unknown
Weather: no significant weather observed at this time

METAR text: LFKJ 172030Z AUTO 03003KT CAVOK 23/17 Q1016 NOSIG
Conditions at: LFKJ (AJACCIO/CAMPO OR, FR) observed 2030 UTC 17 August 2019
Temperature: 23.0°C (73°F)
Dewpoint: 17.0°C (63°F) [RH = 69%]
Pressure (altimeter): 30.00 inches Hg (1016.0 mb)
Winds: from the NNE (30 degrees) at 3 MPH (3 knots; 1.5 m/s)
Visibility: 6 or more miles (10+ km)
Ceiling: ceiling and visibility are OK
Clouds: unknown
Weather: no significant weather observed at this time

METAR text: LFKJ 172000Z AUTO 04004KT CAVOK 23/18 Q1016 NOSIG
Conditions at: LFKJ (AJACCIO/CAMPO OR, FR) observed 2000 UTC 17 August 2019
Temperature: 23.0°C (73°F)
Dewpoint: 18.0°C (64°F) [RH = 73%]
Pressure (altimeter): 30.00 inches Hg (1016.0 mb)
Winds: from the NE (40 degrees) at 5 MPH (4 knots; 2.1 m/s)
Visibility: 6 or more miles (10+ km)
Ceiling: ceiling and visibility are OK
Clouds: unknown
Weather: no significant weather observed at this time

METAR text: LFKJ 171930Z AUTO 04003KT CAVOK 24/18 Q1016 NOSIG
Conditions at: LFKJ (AJACCIO/CAMPO OR, FR) observed 1930 UTC 17 August 2019
Temperature: 24.0°C (75°F)
Dewpoint: 18.0°C (64°F) [RH = 69%]
Pressure (altimeter): 30.00 inches Hg (1016.0 mb)
Winds: from the NE (40 degrees) at 3 MPH (3 knots; 1.5 m/s)
Visibility: 6 or more miles (10+ km)
Ceiling: ceiling and visibility are OK
Clouds: unknown
Weather: no significant weather observed at this time

METAR text: LFKJ 171900Z AUTO 20002KT CAVOK 25/19 Q1016 NOSIG
Conditions at: LFKJ (AJACCIO/CAMPO OR, FR) observed 1900 UTC 17 August 2019
Temperature: 25.0°C (77°F)
Dewpoint: 19.0°C (66°F) [RH = 69%]
Pressure (altimeter): 30.00 inches Hg (1016.0 mb)
Winds: from the SSW (200 degrees) at 2 MPH (2 knots; 1.0 m/s)
Visibility: 6 or more miles (10+ km)
Ceiling: ceiling and visibility are OK
Clouds: unknown
Weather: no significant weather observed at this time

METAR text: LFKJ 171830Z AUTO 16004KT CAVOK 25/18 Q1016 NOSIG
Conditions at: LFKJ (AJACCIO/CAMPO OR, FR) observed 1830 UTC 17 August 2019
Temperature: 25.0°C (77°F)
Dewpoint: 18.0°C (64°F) [RH = 65%]
Pressure (altimeter): 30.00 inches Hg (1016.0 mb)
Winds: from the SSE (160 degrees) at 5 MPH (4 knots; 2.1 m/s)
Visibility: 6 or more miles (10+ km)
Ceiling: ceiling and visibility are OK
Clouds: unknown
Weather: no significant weather observed at this time

METAR text: LFKJ 171800Z AUTO 21006KT CAVOK 26/18 Q1016 NOSIG
Conditions at: LFKJ (AJACCIO/CAMPO OR, FR) observed 1800 UTC 17 August 2019
Temperature: 26.0°C (79°F)
Dewpoint: 18.0°C (64°F) [RH = 61%]
Pressure (altimeter): 30.00 inches Hg (1016.0 mb)
Winds: from the SSW (210 degrees) at 7 MPH (6 knots; 3.1 m/s)
Visibility: 6 or more miles (10+ km)
Ceiling: ceiling and visibility are OK
Clouds: unknown
Weather: no significant weather observed at this time

METAR text: LFKJ 171730Z AUTO 22007KT CAVOK 26/19 Q1016 NOSIG
Conditions at: LFKJ (AJACCIO/CAMPO OR, FR) observed 1730 UTC 17 August 2019
Temperature: 26.0°C (79°F)
Dewpoint: 19.0°C (66°F) [RH = 65%]
Pressure (altimeter): 30.00 inches Hg (1016.0 mb)
Winds: from the SW (220 degrees) at 8 MPH (7 knots; 3.6 m/s)
Visibility: 6 or more miles (10+ km)
Ceiling: ceiling and visibility are OK
Clouds: unknown
Weather: no significant weather observed at this time

METAR text: LFKJ 171700Z AUTO 21007KT CAVOK 27/18 Q1016 NOSIG
Conditions at: LFKJ (AJACCIO/CAMPO OR, FR) observed 1700 UTC 17 August 2019
Temperature: 27.0°C (81°F)
Dewpoint: 18.0°C (64°F) [RH = 58%]
Pressure (altimeter): 30.00 inches Hg (1016.0 mb)
Winds: from the SSW (210 degrees) at 8 MPH (7 knots; 3.6 m/s)
Visibility: 6 or more miles (10+ km)
Ceiling: ceiling and visibility are OK
Clouds: unknown
Weather: no significant weather observed at this time

METAR text: LFKJ 171630Z AUTO 21007KT CAVOK 28/18 Q1016 NOSIG
Conditions at: LFKJ (AJACCIO/CAMPO OR, FR) observed 1630 UTC 17 August 2019
Temperature: 28.0°C (82°F)
Dewpoint: 18.0°C (64°F) [RH = 55%]
Pressure (altimeter): 30.00 inches Hg (1016.0 mb)
Winds: from the SSW (210 degrees) at 8 MPH (7 knots; 3.6 m/s)
Visibility: 6 or more miles (10+ km)
Ceiling: ceiling and visibility are OK
Clouds: unknown
Weather: no significant weather observed at this time

METAR text: LFKJ 171600Z AUTO 21007KT CAVOK 28/18 Q1016 NOSIG
Conditions at: LFKJ (AJACCIO/CAMPO OR, FR) observed 1600 UTC 17 August 2019
Temperature: 28.0°C (82°F)
Dewpoint: 18.0°C (64°F) [RH = 55%]
Pressure (altimeter): 30.00 inches Hg (1016.0 mb)
Winds: from the SSW (210 degrees) at 8 MPH (7 knots; 3.6 m/s)
Visibility: 6 or more miles (10+ km)
Ceiling: ceiling and visibility are OK
Clouds: unknown
Weather: no significant weather observed at this time

Forecast for: LFKJ (AJACCIO/CAMPO OR, FR)
Text: TAF LFKJ 190200Z 1903/2003 04006KT CAVOK
Forecast period: 0300 to 0700 UTC 19 August 2019
Forecast type: FROM: standard forecast or significant change
Winds: from the NE (40 degrees) at 7 MPH (6 knots; 3.1 m/s)
Visibility: 6 or more miles 10+ km)
Ceiling: unknown
Clouds: missing
Weather: NSW  (no significant weather)
Text: BECMG 1907/1909 23010KT
Forecast period: 0700 to 1800 UTC 19 August 2019
Forecast type: BECOMING: Conditions expected to become as follows by 0900 UTC 19 August 2019
Winds: from the SW (230 degrees) at 12 MPH (10 knots; 5.1 m/s)
Visibility: 6 or more miles 10+ km)
Ceiling: unknown
Clouds: missing
Weather: NSW  (no significant weather)
Text: BECMG 1918/1920 05006KT
Forecast period: 1800 UTC 19 August 2019 to 0300 UTC 20 August 2019
Forecast type: BECOMING: Conditions expected to become as follows by 2000 UTC 19 August 2019
Winds: from the NE (50 degrees) at 7 MPH (6 knots; 3.1 m/s)
Visibility: 6 or more miles 10+ km)
Ceiling: unknown
Clouds: missing
Weather: NSW  (no significant weather)